PAOT 220311Z 2203/2224 18011KT P6SM OVC100
FM220700 12007KT P6SM VCSH OVC025
From batch tds/tafs/production/2024/5/22/h03_m20_tafs.cache.xml.gz
Issued (24 days ago)
Forecasts
2203/2207 18011KT 6+SM OVC10000

---
fcst_time_to: '2024-05-22T07:00:00Z'
sky_condition:
- sky_cover: OVC
  cloud_base_ft_agl: '10000'
wind_speed_kt: '11'
fcst_time_from: '2024-05-22T03:00:00Z'
wind_dir_degrees: '180'
visibility_statute_mi: 6+

FM220700 12007KT 6+SM OVC2500

---
wx_string: VCSH
fcst_time_to: '2024-05-23T00:00:00Z'
sky_condition:
- sky_cover: OVC
  cloud_base_ft_agl: '2500'
wind_speed_kt: '7'
fcst_time_from: '2024-05-22T07:00:00Z'
change_indicator: FM
wind_dir_degrees: '120'
visibility_statute_mi: 6+

talk